This is the latest recevied weather packets stored in our database for station/object K7YVO. If no packets are shown the sender has not sent any weather packets the latest 1 day(s).
| Time | Temp. | Humidity | Pressure | Rain* | Wind** | Luminosity | Snow |
|---|---|---|---|---|---|---|---|
| 1778025884 | 16.11° C | 75% | 1017.7 hPa | 0 mm | - | 101 W/m² | - |
| 1778021646 | 15.56° C | 76% | 1018 hPa | 0 mm | - | 106 W/m² | - |
| 1778020128 | 16.11° C | 74% | 1018 hPa | 0 mm | - | 150 W/m² | - |
| 1778019218 | 16.67° C | 73% | 1018.2 hPa | 0 mm | - | 206 W/m² | - |
| 1778018008 | 16.67° C | 71% | 1018.1 hPa | 0 mm | - | 187 W/m² | - |
| 1778017403 | 16.11° C | 73% | 1018.3 hPa | 0 mm | - | 221 W/m² | - |
| 1778016798 | 16.11° C | 73% | 1018.3 hPa | 0 mm | - | 200 W/m² | - |
| 1778016191 | 16.11° C | 73% | 1018.3 hPa | 0 mm | - | 280 W/m² | - |
| 1778015585 | 15.56° C | 74% | 1018.4 hPa | 0 mm | - | 315 W/m² | - |
| 1778014978 | 15° C | 76% | 1018.3 hPa | 0 mm | - | 318 W/m² | - |
| 1778013464 | 14.44° C | 80% | 1018.5 hPa | 0 mm | - | 171 W/m² | - |
| 1778013161 | 15° C | 79% | 1018.6 hPa | 0 mm | - | 154 W/m² | - |
| 1778012857 | 15° C | 79% | 1018.6 hPa | 0 mm | - | 166 W/m² | - |
| 1778011948 | 15° C | 78% | 1018.7 hPa | 0 mm | - | 261 W/m² | - |
| 1778011646 | 15° C | 79% | 1018.8 hPa | 0 mm | - | 203 W/m² | - |
| 1778011038 | 14.44° C | 81% | 1018.8 hPa | 0 mm | - | 191 W/m² | - |
| 1778010433 | 14.44° C | 82% | 1018.9 hPa | 0 mm | - | 203 W/m² | - |
| 1778009825 | 14.44° C | 82% | 1018.7 hPa | 0 mm | - | 220 W/m² | - |
| 1778007710 | 13.33° C | 86% | 1018.6 hPa | 0 mm | - | 156 W/m² | - |
| 1778006194 | 13.33° C | 88% | 1018.7 hPa | 0 mm | - | 183 W/m² | - |
| 1778005892 | 12.78° C | 89% | 1018.9 hPa | 0 mm | - | 168 W/m² | - |
| 1778003768 | 12.22° C | 90% | 1018.7 hPa | 0 mm | - | 160 W/m² | - |
| 1778002554 | 11.67° C | 92% | 1018.7 hPa | 0 mm | - | 80 W/m² | - |
| 1778002251 | 12.22° C | 91% | 1018.7 hPa | 0 mm | - | 83 W/m² | - |
| 1778001645 | 12.22° C | 92% | 1018.6 hPa | 0 mm | - | 72 W/m² | - |
* Rain latest hour (hover to see other rain measurements)
** Current wind speed in m/s (hover to see current wind gust speed)